createdAt,value
2018-08-31T10:07:08.267Z,1022.00
2018-08-31T10:13:54.875Z,1022.10
2018-08-31T10:15:21.694Z,1022.10
2018-08-31T10:20:41.808Z,1022.06
2018-08-31T10:22:08.807Z,1022.08
2018-08-31T10:23:35.470Z,1022.11
2018-08-31T10:25:03.022Z,1022.11
2018-08-31T10:26:29.938Z,1022.13
2018-08-31T10:27:57.155Z,1022.16
2018-08-31T10:29:24.196Z,1022.15
2018-08-31T10:30:51.569Z,1022.16
2018-08-31T10:32:19.158Z,1022.15
2018-08-31T10:33:46.528Z,1022.18
2018-08-31T10:35:14.118Z,1022.20
2018-08-31T10:36:41.596Z,1022.21
2018-08-31T10:38:09.053Z,1022.21
2018-08-31T10:39:36.227Z,1022.22
2018-08-31T10:41:03.521Z,1022.19
2018-08-31T10:42:30.957Z,1022.19
2018-08-31T10:43:57.987Z,1022.20
2018-08-31T10:45:24.972Z,1022.21
2018-08-31T10:46:52.657Z,1022.20
2018-08-31T10:48:20.125Z,1022.22
2018-08-31T10:49:47.202Z,1022.21
2018-08-31T10:51:14.745Z,1022.24
2018-08-31T10:52:42.557Z,1022.20
2018-08-31T10:54:09.776Z,1022.21
2018-08-31T10:55:37.467Z,1022.20
2018-08-31T10:57:04.931Z,1022.19
2018-08-31T10:58:32.506Z,1022.20
2018-08-31T10:59:59.898Z,1022.20
2018-08-31T11:01:27.596Z,1022.18
2018-08-31T11:02:54.291Z,1022.16
2018-08-31T11:04:21.789Z,1022.19
2018-08-31T11:05:49.114Z,1022.24
2018-08-31T11:07:16.692Z,1022.17
2018-08-31T11:08:44.105Z,1022.22
2018-08-31T11:10:11.093Z,1022.21
2018-08-31T11:11:38.717Z,1022.17
2018-08-31T11:13:03.027Z,1022.21
2018-08-31T11:14:32.402Z,1022.20
2018-08-31T11:15:59.390Z,1022.23
2018-08-31T11:17:26.036Z,1022.22
2018-08-31T11:18:53.629Z,1022.21
2018-08-31T11:20:20.954Z,1022.24
2018-08-31T11:21:48.556Z,1022.17
2018-08-31T11:23:15.934Z,1022.16
2018-08-31T11:24:43.532Z,1022.15
2018-08-31T11:26:10.952Z,1022.20
2018-08-31T11:27:38.505Z,1022.22
2018-08-31T11:29:05.169Z,1022.23
2018-08-31T11:30:31.699Z,1022.21
2018-08-31T11:31:59.225Z,1022.21
2018-08-31T11:33:26.459Z,1022.21
2018-08-31T11:34:54.132Z,1022.21
2018-08-31T11:36:21.664Z,1022.23
2018-08-31T11:37:48.999Z,1022.17
2018-08-31T11:39:16.268Z,1022.20
2018-08-31T11:40:43.894Z,1022.14
2018-08-31T11:42:11.410Z,1022.11
2018-08-31T11:43:38.696Z,1022.12
2018-08-31T11:45:06.205Z,1022.12
2018-08-31T11:46:33.515Z,1022.12
2018-08-31T11:48:02.074Z,1022.10
2018-08-31T11:49:36.197Z,1022.09
2018-08-31T11:50:55.162Z,1022.09
2018-08-31T11:52:22.543Z,1022.07
2018-08-31T11:53:50.163Z,1022.05
2018-08-31T11:55:17.202Z,1022.08
2018-08-31T11:56:44.722Z,1022.05
2018-08-31T11:58:11.245Z,1022.02
2018-08-31T11:59:38.833Z,1022.02
2018-08-31T12:01:06.476Z,1022.00
2018-08-31T12:02:33.611Z,1021.96
2018-08-31T12:04:01.244Z,1021.97
2018-08-31T12:05:28.024Z,1022.02
2018-08-31T12:06:55.288Z,1022.02
2018-08-31T12:08:22.216Z,1022.04
2018-08-31T12:09:48.804Z,1022.07
2018-08-31T12:11:16.310Z,1022.13
2018-08-31T12:12:43.149Z,1022.10
2018-08-31T12:14:09.532Z,1022.16
2018-08-31T12:15:36.172Z,1022.18
2018-08-31T12:17:03.678Z,1022.20
2018-08-31T12:18:31.113Z,1022.19
2018-08-31T12:19:58.463Z,1022.20
2018-08-31T12:21:25.223Z,1022.20
2018-08-31T12:22:52.781Z,1022.22
2018-08-31T12:24:20.263Z,1022.24
2018-08-31T12:25:47.771Z,1022.23
2018-08-31T12:27:15.160Z,1022.25
2018-08-31T12:28:42.523Z,1022.28
2018-08-31T12:30:09.227Z,1022.30
2018-08-31T12:31:36.598Z,1022.30
2018-08-31T12:33:04.036Z,1022.31
2018-08-31T12:34:31.298Z,1022.33
2018-08-31T12:35:58.392Z,1022.35
2018-08-31T12:37:25.512Z,1022.36
2018-08-31T12:38:52.884Z,1022.35
2018-08-31T12:40:20.560Z,1022.36
2018-08-31T12:41:47.749Z,1022.34
2018-08-31T12:43:14.501Z,1022.33
2018-08-31T12:44:41.888Z,1022.35
2018-08-31T12:46:09.537Z,1022.34
2018-08-31T12:47:36.198Z,1022.32
2018-08-31T12:49:03.746Z,1022.31
2018-08-31T12:50:31.509Z,1022.33
2018-08-31T12:51:58.613Z,1022.30
2018-08-31T12:53:25.648Z,1022.28
2018-08-31T12:54:52.981Z,1022.28
2018-08-31T12:56:20.240Z,1022.26
2018-08-31T12:57:47.828Z,1022.26
2018-08-31T12:59:15.224Z,1022.26
2018-08-31T13:00:42.741Z,1022.23
2018-08-31T13:02:09.309Z,1022.22
2018-08-31T13:03:36.763Z,1022.23
2018-08-31T13:05:04.231Z,1022.24
2018-08-31T13:06:31.321Z,1022.24
2018-08-31T13:07:58.883Z,1022.25
2018-08-31T13:09:25.954Z,1022.25
2018-08-31T13:10:53.330Z,1022.27
2018-08-31T13:12:21.149Z,1022.32
2018-08-31T13:13:48.045Z,1022.33
2018-08-31T13:15:14.389Z,1022.32
2018-08-31T13:16:41.904Z,1022.37
2018-08-31T13:18:09.487Z,1022.38
2018-08-31T13:19:36.785Z,1022.41
2018-08-31T13:21:04.220Z,1022.44
2018-08-31T13:22:30.552Z,1022.39
2018-08-31T13:23:57.953Z,1022.40
2018-08-31T13:25:25.417Z,1022.41
2018-08-31T13:26:53.080Z,1022.40
2018-08-31T13:28:19.896Z,1022.39
2018-08-31T13:29:47.277Z,1022.38
2018-08-31T13:31:14.813Z,1022.36
2018-08-31T13:32:42.017Z,1022.35
2018-08-31T13:34:09.842Z,1022.36
2018-08-31T13:35:36.613Z,1022.37
2018-08-31T13:37:04.080Z,1022.35
2018-08-31T13:38:31.481Z,1022.35
2018-08-31T13:39:58.739Z,1022.33
2018-08-31T13:41:26.335Z,1022.34
2018-08-31T13:42:53.872Z,1022.36
2018-08-31T13:44:21.261Z,1022.33
2018-08-31T13:45:48.887Z,1022.35
2018-08-31T13:47:16.322Z,1022.35
2018-08-31T13:48:43.996Z,1022.34
2018-08-31T13:50:11.159Z,1022.34
2018-08-31T13:51:38.436Z,1022.35
2018-08-31T13:53:05.195Z,1022.36
2018-08-31T13:54:31.917Z,1022.38
2018-08-31T13:55:59.178Z,1022.38
2018-08-31T13:57:25.889Z,1022.38
2018-08-31T13:58:53.264Z,1022.38
2018-08-31T14:00:20.926Z,1022.40
2018-08-31T14:01:47.799Z,1022.43
2018-08-31T14:03:14.263Z,1022.46
2018-08-31T14:04:42.067Z,1022.50
2018-08-31T14:06:09.424Z,1022.51
2018-08-31T14:07:36.755Z,1022.54
2018-08-31T14:09:04.391Z,1022.54
2018-08-31T14:10:30.509Z,1022.55
2018-08-31T14:11:58.040Z,1022.56
2018-08-31T14:13:24.552Z,1022.58
2018-08-31T14:14:50.917Z,1022.62
2018-08-31T14:16:17.449Z,1022.62
2018-08-31T14:17:45.061Z,1022.65
2018-08-31T14:19:12.115Z,1022.64
2018-08-31T14:20:39.483Z,1022.65
2018-08-31T14:22:06.855Z,1022.68
2018-08-31T14:23:34.068Z,1022.66
2018-08-31T14:25:00.641Z,1022.68
2018-08-31T14:26:27.164Z,1022.65
2018-08-31T14:27:54.457Z,1022.67
2018-08-31T14:29:22.007Z,1022.65
2018-08-31T14:30:48.501Z,1022.64
2018-08-31T14:32:15.800Z,1022.64
2018-08-31T14:33:42.814Z,1022.67
2018-08-31T14:35:10.391Z,1022.67
2018-08-31T14:36:37.857Z,1022.67
2018-08-31T14:38:04.934Z,1022.67
2018-08-31T14:39:32.034Z,1022.69
2018-08-31T14:40:59.697Z,1022.68
2018-08-31T14:42:26.535Z,1022.70
2018-08-31T14:43:54.066Z,1022.68
2018-08-31T14:45:21.536Z,1022.68
2018-08-31T14:46:48.969Z,1022.63
2018-08-31T14:48:15.448Z,1022.64
2018-08-31T14:49:43.038Z,1022.65
2018-08-31T14:51:10.734Z,1022.65
2018-08-31T14:52:37.504Z,1022.69
2018-08-31T14:54:04.919Z,1022.66
2018-08-31T14:55:31.706Z,1022.66
2018-08-31T14:56:58.510Z,1022.65
2018-08-31T14:58:25.764Z,1022.63
2018-08-31T14:59:53.345Z,1022.66
2018-08-31T15:01:19.768Z,1022.66
2018-08-31T15:02:46.200Z,1022.65
2018-08-31T15:04:12.781Z,1022.67
2018-08-31T15:05:38.965Z,1022.67
2018-08-31T15:07:06.459Z,1022.69
2018-08-31T15:08:33.684Z,1022.70
2018-08-31T15:10:01.364Z,1022.66
2018-08-31T15:11:28.954Z,1022.68
2018-08-31T15:12:56.433Z,1022.68
2018-08-31T15:14:22.791Z,1022.71
2018-08-31T15:15:50.438Z,1022.73
2018-08-31T15:17:17.837Z,1022.73
2018-08-31T15:18:45.241Z,1022.74
2018-08-31T15:20:12.842Z,1022.74
2018-08-31T15:21:40.189Z,1022.72
2018-08-31T15:23:07.836Z,1022.69
2018-08-31T15:24:35.199Z,1022.69
2018-08-31T15:26:01.725Z,1022.68
2018-08-31T15:27:29.139Z,1022.67
2018-08-31T15:28:56.717Z,1022.68
2018-08-31T15:30:22.814Z,1022.71
2018-08-31T15:31:50.540Z,1022.70
2018-08-31T15:33:16.882Z,1022.71
2018-08-31T15:34:44.249Z,1022.74
2018-08-31T15:36:11.699Z,1022.75
2018-08-31T15:37:38.345Z,1022.77
2018-08-31T15:39:05.735Z,1022.80
2018-08-31T15:40:33.257Z,1022.78
2018-08-31T15:42:00.543Z,1022.78
2018-08-31T15:43:28.116Z,1022.77
2018-08-31T15:44:55.564Z,1022.79
2018-08-31T15:46:23.178Z,1022.79
2018-08-31T15:47:50.572Z,1022.82
2018-08-31T15:49:16.970Z,1022.80
2018-08-31T15:50:44.589Z,1022.81
2018-08-31T15:52:12.134Z,1022.80
2018-08-31T15:53:39.441Z,1022.79
2018-08-31T15:55:05.904Z,1022.77
2018-08-31T15:56:33.335Z,1022.75
2018-08-31T15:58:01.012Z,1022.74
2018-08-31T15:59:28.369Z,1022.74
2018-08-31T16:00:55.244Z,1022.70
2018-08-31T16:02:22.097Z,1022.69
2018-08-31T16:03:49.330Z,1022.70
2018-08-31T16:05:16.694Z,1022.70
2018-08-31T16:06:44.176Z,1022.70
2018-08-31T16:08:11.671Z,1022.70
2018-08-31T16:09:38.934Z,1022.71
2018-08-31T16:11:06.186Z,1022.71
2018-08-31T16:12:33.841Z,1022.72
2018-08-31T16:14:00.767Z,1022.68
2018-08-31T16:15:28.235Z,1022.68
2018-08-31T16:16:55.481Z,1022.68
2018-08-31T16:18:22.907Z,1022.67
2018-08-31T16:19:50.502Z,1022.68
2018-08-31T16:21:18.037Z,1022.69
2018-08-31T16:22:45.526Z,1022.71
2018-08-31T16:24:12.992Z,1022.71
2018-08-31T16:25:39.340Z,1022.71
2018-08-31T16:27:06.895Z,1022.71
2018-08-31T16:28:34.150Z,1022.72
2018-08-31T16:30:00.767Z,1022.73
2018-08-31T16:31:28.063Z,1022.71
2018-08-31T16:32:55.305Z,1022.73
2018-08-31T16:34:22.655Z,1022.72
2018-08-31T16:35:50.362Z,1022.73
2018-08-31T16:37:17.771Z,1022.73
2018-08-31T16:38:45.218Z,1022.73
2018-08-31T16:40:11.562Z,1022.77
2018-08-31T16:41:37.880Z,1022.77
2018-08-31T16:43:04.567Z,1022.78
2018-08-31T16:44:31.890Z,1022.79
2018-08-31T16:45:59.491Z,1022.81
2018-08-31T16:47:26.967Z,1022.81
2018-08-31T16:48:54.472Z,1022.84
2018-08-31T16:50:20.834Z,1022.85
2018-08-31T16:51:48.075Z,1022.86
2018-08-31T16:53:15.762Z,1022.86
2018-08-31T16:54:43.088Z,1022.86
2018-08-31T16:56:10.423Z,1022.86
2018-08-31T16:57:37.842Z,1022.86
2018-08-31T16:59:04.028Z,1022.87
2018-08-31T17:00:31.423Z,1022.88
2018-08-31T17:01:58.871Z,1022.87
2018-08-31T17:03:26.078Z,1022.88
2018-08-31T17:04:53.368Z,1022.89
2018-08-31T17:06:18.613Z,1022.89
2018-08-31T17:07:45.208Z,1022.86
2018-08-31T17:09:12.806Z,1022.86
2018-08-31T17:10:38.995Z,1022.87
2018-08-31T17:12:05.813Z,1022.89
2018-08-31T17:13:32.955Z,1022.91
2018-08-31T17:15:00.628Z,1022.95
2018-08-31T17:16:28.081Z,1022.95
2018-08-31T17:17:55.386Z,1022.95
2018-08-31T17:19:22.916Z,1022.98
2018-08-31T17:20:48.724Z,1022.98
2018-08-31T17:22:16.166Z,1023.00
2018-08-31T17:23:42.539Z,1023.00
2018-08-31T17:25:09.962Z,1023.01
2018-08-31T17:26:37.047Z,1023.04
2018-08-31T17:28:04.701Z,1023.04
2018-08-31T17:29:31.245Z,1023.03
2018-08-31T17:30:58.696Z,1023.05
2018-08-31T17:32:25.520Z,1023.08
2018-08-31T17:33:52.832Z,1023.12
2018-08-31T17:35:20.448Z,1023.14
2018-08-31T17:36:46.805Z,1023.16
2018-08-31T17:38:13.200Z,1023.20
2018-08-31T17:39:39.253Z,1023.21
2018-08-31T17:41:06.667Z,1023.20
2018-08-31T17:42:33.877Z,1023.20
2018-08-31T17:44:01.305Z,1023.21
2018-08-31T17:45:28.166Z,1023.20
2018-08-31T17:46:55.650Z,1023.21
2018-08-31T17:48:22.201Z,1023.20
2018-08-31T17:49:49.522Z,1023.22
2018-08-31T17:51:16.868Z,1023.24
2018-08-31T17:52:44.286Z,1023.27
2018-08-31T17:54:11.803Z,1023.31
2018-08-31T17:55:39.348Z,1023.33
2018-08-31T17:57:06.862Z,1023.33
2018-08-31T17:58:34.287Z,1023.34
2018-08-31T18:00:01.786Z,1023.36
2018-08-31T18:01:28.004Z,1023.40
2018-08-31T18:02:55.364Z,1023.41
2018-08-31T18:04:22.776Z,1023.42
2018-08-31T18:05:50.254Z,1023.42
2018-08-31T18:07:17.693Z,1023.43
2018-08-31T18:08:45.378Z,1023.47
2018-08-31T18:10:12.853Z,1023.50
2018-08-31T18:11:40.434Z,1023.54
2018-08-31T18:41:42.508Z,1023.80
